createdAt,value
2022-08-26T00:01:46.437Z,98316.38
2022-08-26T00:04:13.396Z,98316.47
2022-08-26T00:06:42.451Z,98319.03
2022-08-26T00:09:12.418Z,98331.56
2022-08-26T00:11:38.828Z,98321.94
2022-08-26T00:14:06.486Z,98332.00
2022-08-26T00:16:33.207Z,98332.59
2022-08-26T00:19:00.027Z,98333.81
2022-08-26T00:21:26.515Z,98334.88
2022-08-26T00:23:54.150Z,98339.34
2022-08-26T00:26:20.694Z,98332.50
2022-08-26T00:28:47.354Z,98333.72
2022-08-26T00:31:14.251Z,98338.00
2022-08-26T00:33:41.032Z,98342.97
2022-08-26T00:36:08.419Z,98343.63
2022-08-26T00:38:46.408Z,98338.91
2022-08-26T00:41:13.023Z,98338.31
2022-08-26T00:43:46.256Z,98331.72
2022-08-26T00:46:23.337Z,98335.09
2022-08-26T00:48:57.673Z,98333.78
2022-08-26T00:51:29.759Z,98340.63
2022-08-26T00:54:05.648Z,98342.69
2022-08-26T00:56:42.085Z,98340.13
2022-08-26T00:59:11.768Z,98343.53
2022-08-26T01:01:41.403Z,98343.22
2022-08-26T01:04:09.555Z,98343.56
2022-08-26T01:06:37.035Z,98336.81
2022-08-26T01:09:04.734Z,98343.81
2022-08-26T01:11:32.790Z,98348.41
2022-08-26T01:14:02.744Z,98355.28
2022-08-26T01:16:30.276Z,98350.84
2022-08-26T01:19:02.868Z,98358.06
2022-08-26T01:21:40.758Z,98344.91
2022-08-26T01:24:10.307Z,98344.03
2022-08-26T01:26:42.944Z,98348.78
2022-08-26T01:29:13.736Z,98350.16
2022-08-26T01:31:44.745Z,98340.47
2022-08-26T01:34:23.251Z,98345.69
2022-08-26T01:36:58.580Z,98347.34
2022-08-26T01:39:25.319Z,98340.63
2022-08-26T01:41:55.603Z,98351.03
2022-08-26T01:44:28.228Z,98351.81
2022-08-26T01:46:57.180Z,98351.63
2022-08-26T01:49:26.065Z,98352.78
2022-08-26T01:51:55.795Z,98351.63
2022-08-26T01:54:23.589Z,98352.09
2022-08-26T01:56:52.509Z,98358.00
2022-08-26T01:59:21.007Z,98362.53
2022-08-26T02:01:48.822Z,98365.34
2022-08-26T02:04:21.311Z,98360.50
2022-08-26T02:06:48.581Z,98363.69
2022-08-26T02:09:16.446Z,98362.72
2022-08-26T02:11:43.356Z,98372.75
2022-08-26T02:14:14.966Z,98362.16
2022-08-26T02:16:45.485Z,98374.19
2022-08-26T02:19:22.292Z,98373.34
2022-08-26T02:21:52.053Z,98367.59
2022-08-26T02:24:24.576Z,98365.56
2022-08-26T02:26:55.833Z,98369.00
2022-08-26T02:29:26.642Z,98368.16
2022-08-26T02:31:54.820Z,98377.81
2022-08-26T02:34:32.793Z,98374.97
2022-08-26T02:37:01.394Z,98368.38
2022-08-26T02:39:29.503Z,98376.63
2022-08-26T02:41:57.484Z,98366.97
2022-08-26T02:44:24.145Z,98365.31
2022-08-26T02:46:52.719Z,98369.53
2022-08-26T02:49:21.791Z,98360.56
2022-08-26T02:51:49.389Z,98366.72
2022-08-26T02:54:17.453Z,98368.84
2022-08-26T02:56:44.918Z,98370.00
2022-08-26T02:59:15.319Z,98365.53
2022-08-26T03:01:42.727Z,98361.28
2022-08-26T03:04:12.213Z,98370.72
2022-08-26T03:06:39.366Z,98365.38
2022-08-26T03:09:08.915Z,98365.19
2022-08-26T03:11:36.710Z,98364.81
2022-08-26T03:14:03.890Z,98367.38
2022-08-26T03:16:36.459Z,98362.41
2022-08-26T03:19:06.678Z,98363.94
2022-08-26T03:21:37.032Z,98377.22
2022-08-26T03:24:04.970Z,98366.75
2022-08-26T03:26:31.536Z,98371.00
2022-08-26T03:29:16.603Z,98371.50
2022-08-26T03:31:43.451Z,98360.97
2022-08-26T03:34:11.296Z,98361.22
2022-08-26T03:36:38.599Z,98356.59
2022-08-26T03:39:07.444Z,98357.19
2022-08-26T03:41:36.581Z,98361.19
2022-08-26T03:44:05.870Z,98361.28
2022-08-26T03:46:33.578Z,98358.06
2022-08-26T03:49:02.285Z,98359.72
2022-08-26T03:51:29.215Z,98362.16
2022-08-26T03:53:55.990Z,98356.47
2022-08-26T03:56:23.703Z,98359.16
2022-08-26T03:58:50.915Z,98362.16
2022-08-26T04:01:17.616Z,98355.97
2022-08-26T04:03:58.191Z,98356.06
2022-08-26T04:06:37.209Z,98358.53
2022-08-26T04:09:07.775Z,98351.03
2022-08-26T04:11:37.741Z,98352.53
2022-08-26T04:14:14.208Z,98355.22
2022-08-26T04:16:45.796Z,98363.84
2022-08-26T04:19:14.356Z,98366.19
2022-08-26T04:21:41.490Z,98350.38
2022-08-26T04:24:12.064Z,98352.94
2022-08-26T04:26:42.584Z,98352.03
2022-08-26T04:29:18.111Z,98356.97
2022-08-26T04:31:45.249Z,98359.56
2022-08-26T04:34:11.811Z,98357.06
2022-08-26T04:36:41.911Z,98349.22
2022-08-26T04:39:12.010Z,98359.84
2022-08-26T04:41:39.549Z,98355.81
2022-08-26T04:44:07.687Z,98354.50
2022-08-26T04:46:35.145Z,98355.09
2022-08-26T04:49:02.167Z,98367.38
2022-08-26T04:51:28.671Z,98367.47
2022-08-26T04:53:58.988Z,98365.44
2022-08-26T04:56:27.850Z,98370.88
2022-08-26T04:58:55.291Z,98378.41
2022-08-26T05:01:22.793Z,98371.69
2022-08-26T05:03:50.624Z,98374.19
2022-08-26T05:06:19.046Z,98374.88
2022-08-26T05:08:46.569Z,98381.72
2022-08-26T05:11:13.457Z,98386.41
2022-08-26T05:13:40.279Z,98381.22
2022-08-26T05:16:11.610Z,98378.53
2022-08-26T05:18:39.535Z,98384.00
2022-08-26T05:21:07.338Z,98387.94
2022-08-26T05:23:36.235Z,98384.25
2022-08-26T05:26:08.356Z,98382.53
2022-08-26T05:28:36.235Z,98378.88
2022-08-26T05:31:14.977Z,98377.97
2022-08-26T05:33:45.355Z,98389.00
2022-08-26T05:36:15.160Z,98373.91
2022-08-26T05:38:42.911Z,98378.09
2022-08-26T05:41:24.880Z,98377.03
2022-08-26T05:43:51.934Z,98380.16
2022-08-26T05:46:18.994Z,98377.72
2022-08-26T05:48:45.490Z,98377.28
2022-08-26T05:51:14.585Z,98382.47
2022-08-26T05:53:43.944Z,98378.94
2022-08-26T05:56:24.629Z,98389.91
2022-08-26T05:58:51.103Z,98390.47
2022-08-26T06:01:21.464Z,98385.88
2022-08-26T06:03:54.702Z,98390.28
2022-08-26T06:06:29.048Z,98390.69
2022-08-26T06:08:59.387Z,98395.09
2022-08-26T06:11:27.586Z,98398.63
2022-08-26T06:13:57.097Z,98395.50
2022-08-26T06:16:27.066Z,98398.59
2022-08-26T06:18:54.147Z,98398.38
2022-08-26T06:21:25.235Z,98399.13
2022-08-26T06:24:13.925Z,98394.97
2022-08-26T06:26:42.746Z,98393.41
2022-08-26T06:29:09.703Z,98390.13
2022-08-26T06:31:36.368Z,98386.97
2022-08-26T06:34:09.875Z,98398.50
2022-08-26T06:36:39.275Z,98394.66
2022-08-26T06:39:07.959Z,98399.53
2022-08-26T06:41:35.012Z,98399.16
2022-08-26T06:44:04.759Z,98406.44
2022-08-26T06:46:32.172Z,98387.13
2022-08-26T06:48:59.372Z,98390.50
2022-08-26T06:51:28.837Z,98401.22
2022-08-26T06:53:57.151Z,98396.59
2022-08-26T06:56:27.239Z,98394.22
2022-08-26T06:58:53.752Z,98398.88
2022-08-26T07:01:27.755Z,98399.16
2022-08-26T07:03:57.103Z,98401.59
2022-08-26T07:06:25.630Z,98399.38
2022-08-26T07:08:54.685Z,98400.34
2022-08-26T07:11:21.123Z,98399.50
2022-08-26T07:13:47.975Z,98399.84
2022-08-26T07:16:17.586Z,98396.50
2022-08-26T07:18:45.044Z,98392.66
2022-08-26T07:21:14.626Z,98398.69
2022-08-26T07:23:41.303Z,98410.81
2022-08-26T07:26:21.000Z,98405.69
2022-08-26T07:28:50.514Z,98400.72
2022-08-26T07:31:22.622Z,98396.31
2022-08-26T07:33:49.864Z,98405.09
2022-08-26T07:36:19.295Z,98395.91
2022-08-26T07:38:48.075Z,98389.97
2022-08-26T07:41:17.251Z,98393.34
2022-08-26T07:43:44.329Z,98396.53
2022-08-26T07:46:16.465Z,98399.59
2022-08-26T07:48:46.104Z,98402.78
2022-08-26T07:51:15.287Z,98406.44
2022-08-26T07:53:42.994Z,98398.91
2022-08-26T07:56:09.904Z,98399.47
2022-08-26T07:58:38.500Z,98402.31
2022-08-26T08:01:05.445Z,98397.84
2022-08-26T08:03:34.437Z,98400.38
2022-08-26T08:06:01.081Z,98395.50
2022-08-26T08:08:29.234Z,98394.06
2022-08-26T08:10:56.608Z,98403.16
2022-08-26T08:13:24.269Z,98408.09
2022-08-26T08:15:51.072Z,98400.47
2022-08-26T08:18:20.546Z,98404.22
2022-08-26T08:20:54.555Z,98404.31
2022-08-26T08:23:25.809Z,98399.81
2022-08-26T08:26:10.503Z,98406.75
2022-08-26T08:28:38.423Z,98400.84
2022-08-26T08:31:05.626Z,98404.00
2022-08-26T08:33:33.735Z,98401.03
2022-08-26T08:36:01.110Z,98401.28
2022-08-26T08:38:29.489Z,98408.97
2022-08-26T08:40:56.047Z,98407.06
2022-08-26T08:43:40.112Z,98410.69
2022-08-26T08:46:15.954Z,98411.13
2022-08-26T08:48:44.846Z,98411.22
2022-08-26T08:51:23.373Z,98411.13
2022-08-26T08:53:54.601Z,98413.59
2022-08-26T08:56:31.175Z,98410.66
2022-08-26T08:59:22.431Z,98407.38
2022-08-26T09:01:58.947Z,98408.09
2022-08-26T09:04:58.856Z,98403.06
2022-08-26T09:07:34.571Z,98404.25
2022-08-26T09:10:31.012Z,98406.94
2022-08-26T09:12:57.991Z,98410.16
2022-08-26T09:15:42.069Z,98408.69
2022-08-26T09:18:14.348Z,98410.59
2022-08-26T09:20:48.778Z,98408.88
2022-08-26T09:23:15.543Z,98403.38
2022-08-26T09:25:51.503Z,98411.59
2022-08-26T09:28:21.601Z,98404.59
2022-08-26T09:31:08.006Z,98407.94
2022-08-26T09:33:38.209Z,98401.94
2022-08-26T09:36:14.488Z,98403.97
2022-08-26T09:38:42.086Z,98402.00
2022-08-26T09:41:22.357Z,98406.75
2022-08-26T09:44:04.094Z,98404.91
2022-08-26T09:46:31.878Z,98404.31
2022-08-26T09:49:24.572Z,98405.06
2022-08-26T09:52:03.644Z,98395.94
2022-08-26T09:54:32.333Z,98389.13
2022-08-26T09:57:18.248Z,98384.16
2022-08-26T09:59:45.052Z,98389.34
2022-08-26T10:02:32.922Z,98382.00
2022-08-26T10:05:09.163Z,98384.16
2022-08-26T10:07:45.026Z,98376.03
2022-08-26T10:10:17.355Z,98377.78
2022-08-26T10:12:52.001Z,98383.91
2022-08-26T10:15:19.963Z,98371.41
2022-08-26T10:18:00.950Z,98378.81
2022-08-26T10:20:34.547Z,98382.88
2022-08-26T10:23:07.746Z,98380.19
2022-08-26T10:25:42.904Z,98373.03
2022-08-26T10:28:20.363Z,98372.53
2022-08-26T10:30:56.094Z,98370.78
2022-08-26T10:33:23.978Z,98373.22
2022-08-26T10:35:57.582Z,98361.91
2022-08-26T10:38:34.574Z,98368.41
2022-08-26T10:41:10.769Z,98361.16
2022-08-26T10:43:48.511Z,98359.56
2022-08-26T10:46:22.354Z,98357.75
2022-08-26T10:48:59.947Z,98353.03
2022-08-26T10:51:35.366Z,98353.47
2022-08-26T10:54:11.804Z,98362.59
2022-08-26T10:56:49.540Z,98350.13
2022-08-26T10:59:18.991Z,98342.22
2022-08-26T11:01:56.553Z,98341.41
2022-08-26T11:04:58.928Z,98336.28
2022-08-26T11:07:31.879Z,98339.78
2022-08-26T11:10:00.707Z,98340.16
2022-08-26T11:12:36.331Z,98326.66
2022-08-26T11:15:10.955Z,98333.84
2022-08-26T11:17:45.727Z,98325.78
2022-08-26T11:20:31.026Z,98328.25
2022-08-26T11:23:20.283Z,98333.53
2022-08-26T11:25:57.356Z,98327.53
2022-08-26T11:28:44.467Z,98325.47
2022-08-26T11:31:40.079Z,98327.78
2022-08-26T11:34:12.626Z,98330.47
2022-08-26T11:36:39.267Z,98333.81
2022-08-26T11:39:21.199Z,98331.53
2022-08-26T11:41:52.850Z,98338.25
2022-08-26T11:44:25.564Z,98337.56
2022-08-26T11:46:58.002Z,98325.25
2022-08-26T11:49:24.853Z,98329.44
2022-08-26T11:51:51.677Z,98331.47
2022-08-26T11:54:35.157Z,98329.78
2022-08-26T11:57:09.391Z,98327.44
2022-08-26T11:59:40.381Z,98323.84
2022-08-26T12:02:17.844Z,98328.09
2022-08-26T12:04:48.797Z,98327.91
2022-08-26T12:07:17.095Z,98332.47
2022-08-26T12:10:00.339Z,98321.56
2022-08-26T12:12:34.514Z,98333.41
2022-08-26T12:15:22.644Z,98332.28
2022-08-26T12:17:54.605Z,98328.22
2022-08-26T12:20:31.442Z,98314.19
2022-08-26T12:23:00.065Z,98317.97
2022-08-26T12:25:27.928Z,98316.34
2022-08-26T12:28:05.301Z,98308.75
2022-08-26T12:30:31.911Z,98304.38
2022-08-26T12:33:23.052Z,98303.06
2022-08-26T12:35:56.272Z,98293.41
2022-08-26T12:38:25.925Z,98299.88
2022-08-26T12:40:52.534Z,98300.63
2022-08-26T12:43:39.355Z,98297.09
2022-08-26T12:46:06.772Z,98302.72
2022-08-26T12:48:38.331Z,98299.28
2022-08-26T12:51:08.970Z,98316.69
2022-08-26T12:53:42.562Z,98325.34
2022-08-26T12:56:27.607Z,98311.31
2022-08-26T12:59:03.346Z,98309.22
2022-08-26T13:01:38.022Z,98315.81
2022-08-26T13:04:06.480Z,98309.09
2022-08-26T13:06:34.607Z,98317.81
2022-08-26T13:09:24.004Z,98312.91
2022-08-26T13:11:52.814Z,98301.34
2022-08-26T13:14:23.818Z,98286.59
2022-08-26T13:16:52.403Z,98281.72
2022-08-26T13:19:22.102Z,98267.53
2022-08-26T13:21:52.840Z,98268.69
2022-08-26T13:24:26.452Z,98280.50
2022-08-26T13:26:53.072Z,98283.09
2022-08-26T13:29:20.052Z,98282.13
2022-08-26T13:31:47.355Z,98273.28
2022-08-26T13:34:19.055Z,98272.84
2022-08-26T13:36:47.216Z,98262.78
2022-08-26T13:39:13.899Z,98260.22
2022-08-26T13:41:40.827Z,98261.47
2022-08-26T13:44:07.247Z,98255.44
2022-08-26T13:46:34.028Z,98255.25
2022-08-26T13:49:01.047Z,98256.16
2022-08-26T13:51:28.459Z,98248.19
2022-08-26T13:53:55.309Z,98248.03
2022-08-26T13:56:22.900Z,98241.91
2022-08-26T13:58:49.832Z,98240.22
2022-08-26T14:01:16.862Z,98240.31
2022-08-26T14:03:43.688Z,98243.22
2022-08-26T14:06:10.587Z,98245.09
2022-08-26T14:08:38.409Z,98245.19
2022-08-26T14:11:05.094Z,98247.66
2022-08-26T14:13:31.548Z,98231.00
2022-08-26T14:16:01.186Z,98235.47
2022-08-26T14:18:33.576Z,98224.19
2022-08-26T14:21:01.924Z,98212.06
2022-08-26T14:23:28.419Z,98220.66
2022-08-26T14:25:54.901Z,98201.84
2022-08-26T14:28:21.557Z,98210.78
2022-08-26T14:30:53.574Z,98200.06
2022-08-26T14:33:25.247Z,98208.31
2022-08-26T14:35:52.052Z,98214.13
2022-08-26T14:38:18.527Z,98204.53
2022-08-26T14:40:45.281Z,98214.41
2022-08-26T14:43:15.253Z,98213.25
2022-08-26T14:45:44.451Z,98211.16
2022-08-26T14:48:11.195Z,98212.88
2022-08-26T14:50:38.212Z,98199.69
2022-08-26T14:53:23.347Z,98204.44
2022-08-26T14:55:50.384Z,98192.41
2022-08-26T14:58:17.001Z,98196.06
2022-08-26T15:00:43.542Z,98197.59
2022-08-26T15:03:10.095Z,98213.13
2022-08-26T15:05:36.770Z,98218.16
2022-08-26T15:08:10.542Z,98217.75
2022-08-26T15:10:37.364Z,98225.19
2022-08-26T15:13:03.974Z,98238.31
2022-08-26T15:15:30.686Z,98263.31
2022-08-26T15:17:57.146Z,98264.25
2022-08-26T15:20:23.934Z,98288.34
2022-08-26T15:22:50.400Z,98307.03
2022-08-26T15:25:18.015Z,98322.09
2022-08-26T15:27:44.580Z,98335.13
2022-08-26T15:30:12.189Z,98353.03
2022-08-26T15:32:38.637Z,98355.00
2022-08-26T15:35:09.069Z,98355.88
2022-08-26T15:37:36.523Z,98350.94
2022-08-26T15:40:03.869Z,98343.75
2022-08-26T15:42:30.477Z,98336.41
2022-08-26T15:44:56.904Z,98338.09
2022-08-26T15:47:23.688Z,98334.28
2022-08-26T15:49:50.284Z,98338.88
2022-08-26T15:52:17.390Z,98331.69
2022-08-26T15:54:43.837Z,98324.63
2022-08-26T15:57:12.982Z,98314.53
2022-08-26T15:59:40.979Z,98300.63
2022-08-26T16:02:09.027Z,98288.31
2022-08-26T16:04:35.550Z,98285.59
2022-08-26T16:07:02.356Z,98288.88
2022-08-26T16:09:30.112Z,98296.00
2022-08-26T16:11:57.935Z,98290.69
2022-08-26T16:14:25.288Z,98292.56
2022-08-26T16:16:52.228Z,98285.03
2022-08-26T16:19:19.100Z,98298.81
2022-08-26T16:21:45.621Z,98297.00
2022-08-26T16:24:12.734Z,98296.41
2022-08-26T16:26:41.387Z,98299.44
2022-08-26T16:29:12.153Z,98291.31
2022-08-26T16:31:39.089Z,98297.09
2022-08-26T16:34:06.440Z,98294.84
2022-08-26T16:36:33.449Z,98292.75
2022-08-26T16:39:00.250Z,98300.44
2022-08-26T16:41:29.957Z,98310.22
2022-08-26T16:43:57.006Z,98307.56
2022-08-26T16:46:26.120Z,98299.06
2022-08-26T16:48:55.886Z,98305.66
2022-08-26T16:51:24.173Z,98313.41
2022-08-26T16:53:51.321Z,98309.88
2022-08-26T16:56:20.999Z,98316.38
2022-08-26T16:58:50.546Z,98333.03
2022-08-26T17:01:17.687Z,98326.16
2022-08-26T17:03:44.192Z,98329.88
2022-08-26T17:06:11.338Z,98328.56
2022-08-26T17:08:39.656Z,98325.06
2022-08-26T17:11:06.736Z,98329.75
2022-08-26T17:13:35.101Z,98318.22
2022-08-26T17:16:04.284Z,98320.03
2022-08-26T17:18:31.278Z,98325.75
2022-08-26T17:21:08.093Z,98332.25
2022-08-26T17:23:35.048Z,98332.66
2022-08-26T17:26:01.612Z,98348.72
2022-08-26T17:28:28.295Z,98343.69
2022-08-26T17:30:57.245Z,98341.38
2022-08-26T17:33:24.625Z,98338.66
2022-08-26T17:35:52.936Z,98336.09
2022-08-26T17:38:20.650Z,98343.22
2022-08-26T17:40:47.140Z,98336.34
2022-08-26T17:43:13.716Z,98335.28
2022-08-26T17:45:40.561Z,98334.72
2022-08-26T17:48:07.886Z,98332.03
2022-08-26T17:50:34.508Z,98338.91
2022-08-26T17:53:00.970Z,98334.84
2022-08-26T17:55:27.869Z,98339.22
2022-08-26T17:57:54.422Z,98346.28
2022-08-26T18:00:22.990Z,98337.78
2022-08-26T18:02:49.503Z,98353.94
2022-08-26T18:05:17.442Z,98349.50
2022-08-26T18:07:44.792Z,98364.66
2022-08-26T18:10:13.739Z,98359.72
2022-08-26T18:12:41.458Z,98369.63
2022-08-26T18:15:09.820Z,98374.75
2022-08-26T18:17:37.611Z,98366.63
2022-08-26T18:20:04.408Z,98368.50
2022-08-26T18:22:30.881Z,98369.41
2022-08-26T18:24:58.769Z,98367.53
2022-08-26T18:27:26.365Z,98364.75
2022-08-26T18:29:53.050Z,98367.53
2022-08-26T18:32:19.500Z,98373.00
2022-08-26T18:34:45.959Z,98374.38
2022-08-26T18:37:14.605Z,98372.00
2022-08-26T18:39:41.655Z,98379.59
2022-08-26T18:42:08.303Z,98385.34
2022-08-26T18:44:35.011Z,98382.28
2022-08-26T18:47:01.736Z,98403.34
2022-08-26T18:49:29.261Z,98433.09
2022-08-26T18:51:55.941Z,98443.25
2022-08-26T18:54:22.492Z,98432.66
2022-08-26T18:56:49.074Z,98451.44
2022-08-26T18:59:15.572Z,98441.41
2022-08-26T19:01:42.812Z,98448.91
2022-08-26T19:04:14.107Z,98439.84
2022-08-26T19:06:46.615Z,98439.00
2022-08-26T19:09:14.195Z,98421.13
2022-08-26T19:11:45.303Z,98424.88
2022-08-26T19:14:14.802Z,98431.44
2022-08-26T19:16:44.005Z,98431.13
2022-08-26T19:19:11.347Z,98439.50
2022-08-26T19:21:38.564Z,98447.50
2022-08-26T19:24:12.216Z,98441.13
2022-08-26T19:26:39.049Z,98430.00
2022-08-26T19:29:05.706Z,98442.94
2022-08-26T19:31:32.238Z,98450.94
2022-08-26T19:33:59.435Z,98471.31
2022-08-26T19:36:28.056Z,98474.34
2022-08-26T19:38:55.754Z,98479.56
2022-08-26T19:41:37.113Z,98486.78
2022-08-26T19:44:10.262Z,98497.53
2022-08-26T19:49:08.959Z,98507.84
2022-08-26T19:51:36.600Z,98508.31
2022-08-26T19:54:04.258Z,98501.69
2022-08-26T19:56:31.394Z,98501.94
2022-08-26T19:58:58.271Z,98502.28
2022-08-26T20:01:25.565Z,98493.78
2022-08-26T20:03:52.052Z,98494.66
2022-08-26T20:06:19.897Z,98495.84
2022-08-26T20:08:46.887Z,98491.50
2022-08-26T20:11:16.060Z,98504.16
2022-08-26T20:13:44.158Z,98503.41
2022-08-26T20:16:11.928Z,98504.16
2022-08-26T20:18:58.736Z,98503.94
2022-08-26T20:21:29.132Z,98500.50
2022-08-26T20:24:17.829Z,98491.31
2022-08-26T20:26:44.871Z,98505.13
2022-08-26T20:29:15.016Z,98505.59
2022-08-26T20:31:43.932Z,98505.38
2022-08-26T20:34:13.144Z,98508.56
2022-08-26T20:36:41.042Z,98513.31
2022-08-26T20:39:08.808Z,98517.41
2022-08-26T20:41:35.472Z,98514.38
2022-08-26T20:44:02.034Z,98518.16
2022-08-26T20:46:28.705Z,98511.03
2022-08-26T20:48:55.295Z,98508.47
2022-08-26T20:51:24.726Z,98507.16
2022-08-26T20:53:51.240Z,98500.41
2022-08-26T20:56:23.473Z,98499.22
2022-08-26T20:58:55.380Z,98486.53
2022-08-26T21:01:26.511Z,98480.16
2022-08-26T21:03:54.428Z,98471.16
2022-08-26T21:06:21.739Z,98470.75
2022-08-26T21:08:49.915Z,98461.88
2022-08-26T21:11:17.967Z,98466.84
2022-08-26T21:14:04.057Z,98449.56
2022-08-26T21:16:31.490Z,98449.28
2022-08-26T21:18:58.840Z,98458.22
2022-08-26T21:21:27.603Z,98453.16
2022-08-26T21:23:54.979Z,98449.88
2022-08-26T21:26:22.517Z,98455.88
2022-08-26T21:28:49.335Z,98462.00
2022-08-26T21:31:18.656Z,98452.78
2022-08-26T21:33:45.372Z,98459.19
2022-08-26T21:36:13.227Z,98459.44
2022-08-26T21:38:40.444Z,98461.34
2022-08-26T21:41:27.212Z,98463.47
2022-08-26T21:43:57.903Z,98463.47
2022-08-26T21:46:26.870Z,98464.22
2022-08-26T21:49:01.555Z,98467.41
2022-08-26T21:51:31.019Z,98470.94
2022-08-26T21:53:58.640Z,98476.97
2022-08-26T21:56:27.255Z,98470.56
2022-08-26T21:58:55.443Z,98469.50
2022-08-26T22:01:25.565Z,98472.84
2022-08-26T22:03:52.914Z,98482.66
2022-08-26T22:06:22.188Z,98483.13
2022-08-26T22:08:48.933Z,98482.16
2022-08-26T22:11:15.844Z,98486.44
2022-08-26T22:13:43.324Z,98497.22
2022-08-26T22:16:11.194Z,98495.69
2022-08-26T22:18:38.520Z,98500.16
2022-08-26T22:21:08.458Z,98496.63
2022-08-26T22:23:36.028Z,98497.00
2022-08-26T22:26:02.992Z,98495.66
2022-08-26T22:28:29.544Z,98494.97
2022-08-26T22:30:56.022Z,98497.09
2022-08-26T22:33:23.304Z,98509.16
2022-08-26T22:35:51.693Z,98500.41
2022-08-26T22:38:18.960Z,98500.78
2022-08-26T22:40:50.263Z,98509.41
2022-08-26T22:43:18.333Z,98512.72
2022-08-26T22:45:46.914Z,98514.25
2022-08-26T22:48:15.628Z,98516.72
2022-08-26T22:50:47.058Z,98518.38
2022-08-26T22:53:15.783Z,98516.16
2022-08-26T22:55:45.503Z,98510.84
2022-08-26T22:58:14.496Z,98519.94
2022-08-26T23:00:44.791Z,98518.63
2022-08-26T23:03:11.569Z,98517.81
2022-08-26T23:05:39.791Z,98519.47
2022-08-26T23:08:07.075Z,98528.56
2022-08-26T23:10:33.617Z,98514.16
2022-08-26T23:13:00.115Z,98512.81
2022-08-26T23:15:26.983Z,98519.34
2022-08-26T23:18:03.132Z,98514.84
2022-08-26T23:20:30.684Z,98515.09
2022-08-26T23:22:57.159Z,98511.19
2022-08-26T23:25:24.447Z,98499.59
2022-08-26T23:27:51.740Z,98504.34
2022-08-26T23:30:21.867Z,98506.84
2022-08-26T23:32:48.622Z,98508.47
2022-08-26T23:35:15.945Z,98505.63
2022-08-26T23:37:47.899Z,98506.47
2022-08-26T23:40:18.546Z,98507.78
2022-08-26T23:42:45.043Z,98504.22
2022-08-26T23:45:13.490Z,98509.19
2022-08-26T23:47:41.175Z,98504.94
2022-08-26T23:50:08.519Z,98500.91
2022-08-26T23:52:53.475Z,98507.06
2022-08-26T23:55:20.338Z,98497.72
2022-08-26T23:57:46.756Z,98502.22
